createdAt,value
2022-09-10T00:00:37.598Z,12.90
2022-09-10T00:02:37.624Z,12.90
2022-09-10T00:04:37.681Z,12.90
2022-09-10T00:06:37.613Z,12.90
2022-09-10T00:08:37.708Z,12.90
2022-09-10T00:10:37.587Z,12.80
2022-09-10T00:12:37.630Z,12.80
2022-09-10T00:14:37.628Z,12.80
2022-09-10T00:16:37.687Z,12.70
2022-09-10T00:18:37.720Z,12.70
2022-09-10T00:20:37.601Z,12.50
2022-09-10T00:22:37.604Z,12.50
2022-09-10T00:24:37.627Z,12.50
2022-09-10T00:26:37.612Z,12.50
2022-09-10T00:28:37.796Z,12.40
2022-09-10T00:30:37.623Z,12.30
2022-09-10T00:32:37.604Z,12.30
2022-09-10T00:34:37.704Z,12.30
2022-09-10T00:36:37.688Z,12.20
2022-09-10T00:38:37.763Z,12.20
2022-09-10T00:40:37.644Z,12.20
2022-09-10T00:42:37.653Z,12.20
2022-09-10T00:44:37.632Z,12.20
2022-09-10T00:46:37.645Z,12.20
2022-09-10T00:48:37.746Z,12.20
2022-09-10T00:50:37.651Z,12.20
2022-09-10T00:52:39.784Z,12.20
2022-09-10T00:54:37.747Z,12.20
2022-09-10T00:56:37.647Z,12.20
2022-09-10T00:58:37.922Z,12.30
2022-09-10T01:00:37.661Z,12.30
2022-09-10T01:02:37.642Z,12.30
2022-09-10T01:04:37.660Z,12.20
2022-09-10T01:06:37.667Z,12.20
2022-09-10T01:08:37.976Z,12.20
2022-09-10T01:10:37.769Z,12.20
2022-09-10T01:12:37.648Z,12.10
2022-09-10T01:14:37.696Z,12.20
2022-09-10T01:16:37.693Z,12.20
2022-09-10T01:18:37.666Z,12.10
2022-09-10T01:20:37.648Z,12.10
2022-09-10T01:22:37.676Z,12.10
2022-09-10T01:24:37.692Z,12.10
2022-09-10T01:26:37.639Z,12.10
2022-09-10T01:28:37.867Z,12.10
2022-09-10T01:30:37.651Z,12.00
2022-09-10T01:32:37.698Z,12.00
2022-09-10T01:34:37.675Z,12.00
2022-09-10T01:36:37.680Z,12.00
2022-09-10T01:39:07.709Z,12.00
2022-09-10T01:41:07.661Z,12.10
2022-09-10T01:43:07.799Z,12.10
2022-09-10T01:45:07.665Z,12.10
2022-09-10T01:47:07.696Z,12.10
2022-09-10T01:49:07.683Z,12.00
2022-09-10T01:51:07.705Z,12.00
2022-09-10T01:53:07.685Z,12.00
2022-09-10T01:55:07.704Z,12.00
2022-09-10T01:57:07.713Z,11.90
2022-09-10T01:59:07.797Z,11.80
2022-09-10T02:01:07.727Z,11.80
2022-09-10T02:03:07.671Z,11.80
2022-09-10T02:05:07.725Z,11.80
2022-09-10T02:07:07.718Z,11.80
2022-09-10T02:09:07.689Z,11.80
2022-09-10T02:11:07.801Z,11.80
2022-09-10T02:13:07.676Z,11.80
2022-09-10T02:15:07.690Z,11.70
2022-09-10T02:17:07.716Z,11.70
2022-09-10T02:19:07.683Z,11.70
2022-09-10T02:21:10.718Z,11.70
2022-09-10T02:23:07.716Z,11.60
2022-09-10T02:25:07.716Z,11.60
2022-09-10T02:27:07.743Z,11.60
2022-09-10T02:29:07.704Z,11.60
2022-09-10T02:31:07.688Z,11.60
2022-09-10T02:33:07.729Z,11.60
2022-09-10T02:35:07.741Z,11.60
2022-09-10T02:37:07.705Z,11.60
2022-09-10T02:39:07.728Z,11.60
2022-09-10T02:41:07.720Z,11.60
2022-09-10T02:43:07.768Z,11.60
2022-09-10T02:45:07.808Z,11.60
2022-09-10T02:47:07.699Z,11.60
2022-09-10T02:49:07.717Z,11.60
2022-09-10T02:51:07.702Z,11.60
2022-09-10T02:53:07.767Z,11.70
2022-09-10T02:55:07.756Z,11.60
2022-09-10T02:57:07.737Z,11.60
2022-09-10T02:59:07.717Z,11.70
2022-09-10T03:01:07.760Z,11.70
2022-09-10T03:03:07.703Z,11.70
2022-09-10T03:05:07.808Z,11.70
2022-09-10T03:07:07.747Z,11.70
2022-09-10T03:09:07.789Z,11.70
2022-09-10T03:11:07.717Z,11.80
2022-09-10T03:13:07.729Z,11.80
2022-09-10T03:15:07.728Z,11.90
2022-09-10T03:17:07.839Z,11.90
2022-09-10T03:19:07.769Z,11.90
2022-09-10T03:21:07.746Z,11.90
2022-09-10T03:23:07.756Z,11.90
2022-09-10T03:25:07.745Z,11.90
2022-09-10T03:27:07.784Z,11.80
2022-09-10T03:29:07.732Z,11.80
2022-09-10T03:31:37.966Z,11.80
2022-09-10T03:33:37.791Z,11.80
2022-09-10T03:35:37.797Z,11.80
2022-09-10T03:37:37.786Z,11.80
2022-09-10T03:39:37.787Z,11.80
2022-09-10T03:41:37.789Z,11.90
2022-09-10T03:43:37.760Z,11.90
2022-09-10T03:45:37.844Z,11.90
2022-09-10T03:47:37.745Z,11.90
2022-09-10T03:49:37.792Z,11.90
2022-09-10T03:51:37.773Z,11.80
2022-09-10T03:53:37.788Z,11.80
2022-09-10T03:55:37.837Z,11.80
2022-09-10T03:57:37.750Z,11.90
2022-09-10T03:59:37.784Z,11.90
2022-09-10T04:01:37.804Z,11.90
2022-09-10T04:03:37.974Z,11.90
2022-09-10T04:05:37.780Z,11.80
2022-09-10T04:07:37.791Z,11.80
2022-09-10T04:09:37.779Z,11.80
2022-09-10T04:11:37.876Z,11.80
2022-09-10T04:13:37.800Z,11.80
2022-09-10T04:15:37.768Z,11.80
2022-09-10T04:17:37.807Z,11.80
2022-09-10T04:19:37.794Z,11.80
2022-09-10T04:21:37.787Z,11.80
2022-09-10T04:23:37.788Z,11.80
2022-09-10T04:25:37.816Z,11.80
2022-09-10T04:27:37.775Z,11.80
2022-09-10T04:29:37.776Z,11.80
2022-09-10T04:31:37.868Z,11.80
2022-09-10T04:33:37.772Z,11.70
2022-09-10T04:35:37.821Z,11.80
2022-09-10T04:37:37.818Z,11.70
2022-09-10T04:39:37.856Z,11.80
2022-09-10T04:41:37.806Z,11.80
2022-09-10T04:43:37.853Z,11.80
2022-09-10T04:45:37.835Z,11.70
2022-09-10T04:47:37.825Z,11.70
2022-09-10T04:49:37.792Z,11.70
2022-09-10T04:51:37.819Z,11.70
2022-09-10T04:53:37.841Z,11.70
2022-09-10T04:55:37.864Z,11.70
2022-09-10T04:57:37.845Z,11.80
2022-09-10T04:59:37.825Z,11.80
2022-09-10T05:01:37.836Z,11.80
2022-09-10T05:03:37.876Z,11.70
2022-09-10T05:05:37.811Z,11.70
2022-09-10T05:07:37.797Z,11.70
2022-09-10T05:09:37.827Z,11.70
2022-09-10T05:11:37.808Z,11.70
2022-09-10T05:13:38.256Z,11.70
2022-09-10T05:15:38.088Z,11.80
2022-09-10T05:17:37.821Z,11.70
2022-09-10T05:19:37.799Z,11.70
2022-09-10T05:21:37.811Z,11.70
2022-09-10T05:23:37.849Z,11.80
2022-09-10T05:26:07.809Z,11.80
2022-09-10T05:28:07.834Z,11.80
2022-09-10T05:30:08.044Z,11.80
2022-09-10T05:32:07.809Z,11.80
2022-09-10T05:34:07.815Z,11.80
2022-09-10T05:36:07.835Z,11.80
2022-09-10T05:38:07.844Z,11.80
2022-09-10T05:40:07.866Z,11.90
2022-09-10T05:42:07.861Z,11.90
2022-09-10T05:44:07.878Z,11.90
2022-09-10T05:46:07.834Z,12.00
2022-09-10T05:48:08.020Z,12.00
2022-09-10T05:50:07.870Z,12.00
2022-09-10T05:52:08.462Z,12.00
2022-09-10T05:54:07.874Z,12.00
2022-09-10T05:56:07.903Z,12.00
2022-09-10T05:58:07.855Z,12.10
2022-09-10T06:00:07.929Z,12.10
2022-09-10T06:02:07.942Z,12.10
2022-09-10T06:04:07.927Z,12.10
2022-09-10T06:06:08.050Z,12.10
2022-09-10T06:08:08.932Z,12.20
2022-09-10T06:10:07.952Z,12.20
2022-09-10T06:12:07.880Z,12.20
2022-09-10T06:14:07.872Z,12.20
2022-09-10T06:16:07.939Z,12.20
2022-09-10T06:18:07.929Z,12.20
2022-09-10T06:20:07.967Z,12.20
2022-09-10T06:22:07.959Z,12.20
2022-09-10T06:24:07.867Z,12.20
2022-09-10T06:26:07.945Z,12.20
2022-09-10T06:28:07.957Z,12.20
2022-09-10T06:30:07.909Z,12.30
2022-09-10T06:32:11.788Z,12.30
2022-09-10T06:34:07.930Z,12.40
2022-09-10T06:36:07.940Z,12.40
2022-09-10T06:38:07.966Z,12.40
2022-09-10T06:40:18.332Z,12.40
2022-09-10T06:42:18.505Z,12.40
2022-09-10T06:44:18.328Z,12.50
2022-09-10T06:46:56.853Z,12.60
2022-09-10T06:48:38.104Z,12.60
2022-09-10T06:50:18.345Z,12.60
2022-09-10T06:52:18.317Z,12.70
2022-09-10T06:54:18.313Z,12.60
2022-09-10T06:56:18.329Z,12.60
2022-09-10T06:58:18.340Z,12.70
2022-09-10T07:00:18.381Z,12.70
2022-09-10T07:02:18.450Z,12.80
2022-09-10T07:04:18.431Z,12.90
2022-09-10T07:06:18.345Z,12.90
2022-09-10T07:08:18.538Z,13.00
2022-09-10T07:10:18.349Z,13.20
2022-09-10T07:12:18.317Z,13.20
2022-09-10T07:14:18.383Z,13.40
2022-09-10T07:16:18.344Z,13.40
2022-09-10T07:18:18.341Z,13.50
2022-09-10T07:20:18.364Z,13.50
2022-09-10T07:22:18.354Z,13.60
2022-09-10T07:24:18.344Z,13.60
2022-09-10T07:26:18.336Z,13.60
2022-09-10T07:28:18.326Z,13.60
2022-09-10T07:30:18.423Z,13.50
2022-09-10T07:32:18.394Z,13.40
2022-09-10T07:34:18.360Z,13.40
2022-09-10T07:36:18.395Z,13.50
2022-09-10T07:38:18.341Z,13.60
2022-09-10T07:40:18.469Z,13.70
2022-09-10T07:42:18.379Z,13.70
2022-09-10T07:44:18.393Z,13.70
2022-09-10T07:46:18.531Z,13.80
2022-09-10T07:48:18.346Z,13.70
2022-09-10T07:50:18.340Z,13.60
2022-09-10T07:52:18.466Z,13.60
2022-09-10T07:54:18.376Z,13.60
2022-09-10T07:56:18.496Z,13.40
2022-09-10T07:58:18.499Z,13.40
2022-09-10T08:00:48.417Z,13.40
2022-09-10T08:02:48.383Z,13.40
2022-09-10T08:04:48.367Z,13.40
2022-09-10T08:06:48.466Z,13.40
2022-09-10T08:08:48.387Z,13.60
2022-09-10T08:10:48.472Z,13.60
2022-09-10T08:12:48.383Z,13.90
2022-09-10T08:14:48.385Z,14.10
2022-09-10T08:16:48.396Z,14.10
2022-09-10T08:18:48.371Z,14.10
2022-09-10T08:20:48.387Z,14.30
2022-09-10T08:22:48.367Z,14.20
2022-09-10T08:24:48.461Z,14.20
2022-09-10T08:26:48.383Z,14.20
2022-09-10T08:28:48.440Z,14.20
2022-09-10T08:30:48.574Z,14.20
2022-09-10T08:32:48.413Z,14.20
2022-09-10T08:34:48.576Z,14.20
2022-09-10T08:36:48.482Z,14.00
2022-09-10T08:38:48.463Z,14.00
2022-09-10T08:40:48.372Z,14.10
2022-09-10T08:42:48.387Z,14.10
2022-09-10T08:44:48.417Z,14.10
2022-09-10T08:46:48.489Z,14.00
2022-09-10T08:48:48.472Z,14.10
2022-09-10T08:50:48.488Z,14.00
2022-09-10T08:52:48.407Z,14.00
2022-09-10T08:54:48.608Z,14.00
2022-09-10T08:56:48.549Z,14.00
2022-09-10T08:58:48.444Z,14.00
2022-09-10T09:00:48.545Z,14.40
2022-09-10T09:02:49.706Z,14.40
2022-09-10T09:04:48.479Z,14.40
2022-09-10T09:06:48.508Z,14.70
2022-09-10T09:08:48.689Z,14.60
2022-09-10T09:10:48.520Z,14.70
2022-09-10T09:12:49.445Z,14.70
2022-09-10T09:14:48.473Z,14.70
2022-09-10T09:16:48.478Z,15.30
2022-09-10T09:18:48.501Z,15.40
2022-09-10T09:20:48.495Z,16.10
2022-09-10T09:22:48.495Z,16.10
2022-09-10T09:24:48.540Z,16.40
2022-09-10T09:26:48.553Z,16.70
2022-09-10T09:28:48.497Z,16.50
2022-09-10T09:30:48.632Z,16.50
2022-09-10T09:32:48.484Z,16.10
2022-09-10T09:34:48.493Z,15.90
2022-09-10T09:36:48.485Z,16.00
2022-09-10T09:38:48.468Z,15.80
2022-09-10T09:40:48.451Z,15.80
2022-09-10T09:42:48.520Z,15.80
2022-09-10T09:44:48.478Z,15.80
2022-09-10T09:46:48.583Z,16.00
2022-09-10T09:48:48.524Z,16.10
2022-09-10T09:50:48.475Z,16.10
2022-09-10T09:52:48.536Z,16.50
2022-09-10T09:55:13.092Z,16.50
2022-09-10T09:57:18.701Z,16.20
2022-09-10T09:59:18.472Z,16.20
2022-09-10T10:01:18.528Z,15.90
2022-09-10T10:03:18.475Z,15.80
2022-09-10T10:05:18.515Z,16.10
2022-09-10T10:07:18.526Z,16.30
2022-09-10T10:09:18.582Z,16.30
2022-09-10T10:11:18.567Z,16.30
2022-09-10T10:13:18.551Z,16.30
2022-09-10T10:15:18.563Z,16.40
2022-09-10T10:17:18.513Z,16.60
2022-09-10T10:19:18.489Z,16.60
2022-09-10T10:21:18.541Z,16.80
2022-09-10T10:23:18.565Z,17.10
2022-09-10T10:25:18.589Z,17.30
2022-09-10T10:27:18.541Z,18.00
2022-09-10T10:29:18.561Z,18.00
2022-09-10T10:31:18.696Z,18.70
2022-09-10T10:33:18.532Z,18.40
2022-09-10T10:35:18.475Z,18.40
2022-09-10T10:37:18.539Z,18.40
2022-09-10T10:39:18.515Z,18.60
2022-09-10T10:41:18.595Z,18.20
2022-09-10T10:43:18.518Z,17.50
2022-09-10T10:45:18.493Z,17.00
2022-09-10T10:47:18.823Z,17.00
2022-09-10T10:49:18.516Z,16.90
2022-09-10T10:51:18.538Z,17.50
2022-09-10T10:53:18.595Z,17.70
2022-09-10T10:55:18.598Z,19.10
2022-09-10T10:57:18.584Z,19.10
2022-09-10T10:59:18.604Z,19.70
2022-09-10T11:01:18.619Z,18.80
2022-09-10T11:03:18.675Z,18.00
2022-09-10T11:05:18.781Z,18.00
2022-09-10T11:07:18.590Z,18.00
2022-09-10T11:09:18.559Z,16.30
2022-09-10T11:11:18.619Z,15.90
2022-09-10T11:13:18.599Z,15.60
2022-09-10T11:15:18.636Z,15.60
2022-09-10T11:17:18.540Z,15.60
2022-09-10T11:19:18.522Z,15.00
2022-09-10T11:21:18.526Z,14.50
2022-09-10T11:23:18.601Z,14.30
2022-09-10T11:25:18.584Z,14.30
2022-09-10T11:27:18.596Z,14.20
2022-09-10T11:29:18.517Z,14.20
2022-09-10T11:31:18.752Z,14.10
2022-09-10T11:33:18.546Z,14.10
2022-09-10T11:35:18.549Z,14.00
2022-09-10T11:37:18.569Z,13.90
2022-09-10T11:39:18.573Z,14.00
2022-09-10T11:41:18.596Z,14.00
2022-09-10T11:43:18.819Z,14.00
2022-09-10T11:45:18.832Z,14.10
2022-09-10T11:47:18.639Z,14.00
2022-09-10T11:49:18.592Z,14.00
2022-09-10T11:51:48.591Z,14.10
2022-09-10T11:53:48.583Z,14.10
2022-09-10T11:55:48.649Z,14.10
2022-09-10T11:57:48.649Z,14.10
2022-09-10T11:59:48.667Z,14.10
2022-09-10T12:01:48.807Z,14.00
2022-09-10T12:03:48.566Z,14.00
2022-09-10T12:05:48.547Z,14.00
2022-09-10T12:07:48.577Z,13.90
2022-09-10T12:09:48.605Z,14.20
2022-09-10T12:11:48.613Z,14.30
2022-09-10T12:13:48.623Z,15.00
2022-09-10T12:15:48.662Z,15.00
2022-09-10T12:17:48.673Z,15.70
2022-09-10T12:19:48.674Z,16.70
2022-09-10T12:21:48.581Z,17.10
2022-09-10T12:23:48.601Z,17.80
2022-09-10T12:25:48.629Z,17.80
2022-09-10T12:27:48.623Z,18.20
2022-09-10T12:29:48.677Z,18.40
2022-09-10T12:31:48.645Z,18.10
2022-09-10T12:33:48.695Z,18.10
2022-09-10T12:35:48.703Z,17.80
2022-09-10T12:37:48.722Z,17.80
2022-09-10T12:39:48.690Z,17.40
2022-09-10T12:41:48.737Z,17.00
2022-09-10T12:43:48.748Z,17.00
2022-09-10T12:45:48.770Z,16.80
2022-09-10T12:47:48.705Z,16.50
2022-09-10T12:49:48.793Z,16.30
2022-09-10T12:51:49.734Z,16.20
2022-09-10T12:53:48.630Z,16.20
2022-09-10T12:55:48.645Z,16.50
2022-09-10T12:57:48.684Z,17.10
2022-09-10T12:59:48.677Z,17.70
2022-09-10T13:01:48.791Z,17.70
2022-09-10T13:03:48.704Z,18.30
2022-09-10T13:05:48.686Z,18.80
2022-09-10T13:07:48.816Z,19.00
2022-09-10T13:09:48.623Z,18.40
2022-09-10T13:11:48.720Z,18.40
2022-09-10T13:13:48.701Z,18.00
2022-09-10T13:15:48.732Z,17.50
2022-09-10T13:17:48.790Z,17.50
2022-09-10T13:19:48.764Z,16.80
2022-09-10T13:21:48.837Z,16.80
2022-09-10T13:23:48.711Z,16.40
2022-09-10T13:25:48.666Z,16.20
2022-09-10T13:27:48.638Z,16.20
2022-09-10T13:29:48.760Z,16.10
2022-09-10T13:31:48.731Z,16.10
2022-09-10T13:33:48.909Z,16.10
2022-09-10T13:35:48.807Z,16.30
2022-09-10T13:37:48.822Z,16.30
2022-09-10T13:39:48.727Z,16.30
2022-09-10T13:41:48.604Z,16.60
2022-09-10T13:43:48.777Z,16.90
2022-09-10T13:45:48.837Z,17.10
2022-09-10T13:48:18.608Z,17.50
2022-09-10T13:50:19.071Z,17.50
2022-09-10T13:52:18.728Z,17.70
2022-09-10T13:54:18.782Z,18.00
2022-09-10T13:56:18.779Z,17.90
2022-09-10T14:00:18.738Z,17.90
2022-09-10T14:02:18.792Z,17.40
2022-09-10T14:06:16.923Z,16.70
2022-09-10T14:08:16.918Z,16.70
2022-09-10T14:10:16.938Z,16.60
2022-09-10T14:12:16.970Z,16.40
2022-09-10T14:14:17.059Z,16.40
2022-09-10T14:16:16.960Z,16.40
2022-09-10T14:18:17.045Z,16.40
2022-09-10T14:20:16.894Z,16.50
2022-09-10T14:22:16.906Z,16.50
2022-09-10T14:24:16.940Z,16.40
2022-09-10T14:26:16.982Z,16.40
2022-09-10T14:28:17.022Z,16.40
2022-09-10T14:30:16.972Z,16.20
2022-09-10T14:32:16.914Z,16.00
2022-09-10T14:34:17.020Z,16.00
2022-09-10T14:36:16.910Z,16.00
2022-09-10T14:38:16.944Z,16.00
2022-09-10T14:40:16.999Z,16.00
2022-09-10T14:42:16.945Z,16.10
2022-09-10T14:44:18.246Z,16.40
2022-09-10T14:46:17.050Z,16.40
2022-09-10T14:48:16.896Z,16.60
2022-09-10T14:50:17.028Z,16.90
2022-09-10T14:52:16.955Z,17.00
2022-09-10T14:54:16.939Z,16.90
2022-09-10T14:56:16.939Z,16.90
2022-09-10T14:58:17.011Z,17.00
2022-09-10T15:00:17.024Z,17.20
2022-09-10T15:02:17.081Z,16.90
2022-09-10T15:04:16.997Z,16.90
2022-09-10T15:06:16.935Z,16.90
2022-09-10T15:08:16.946Z,16.70
2022-09-10T15:10:16.991Z,16.60
2022-09-10T15:12:16.992Z,16.80
2022-09-10T15:14:17.269Z,16.80
2022-09-10T15:16:17.074Z,16.80
2022-09-10T15:18:17.013Z,16.60
2022-09-10T15:20:17.117Z,16.60
2022-09-10T15:22:17.081Z,16.40
2022-09-10T15:24:16.948Z,16.40
2022-09-10T15:26:17.035Z,16.20
2022-09-10T15:28:17.214Z,16.00
2022-09-10T15:30:17.102Z,15.80
2022-09-10T15:32:20.296Z,15.60
2022-09-10T15:34:47.099Z,15.30
2022-09-10T15:36:46.964Z,15.30
2022-09-10T15:38:46.954Z,15.00
2022-09-10T15:40:47.018Z,14.60
2022-09-10T15:42:46.989Z,14.40
2022-09-10T15:44:47.104Z,14.20
2022-09-10T15:46:47.046Z,14.20
2022-09-10T15:48:47.133Z,14.20
2022-09-10T15:50:46.981Z,14.20
2022-09-10T15:52:46.946Z,14.30
2022-09-10T15:54:46.977Z,14.30
2022-09-10T15:56:47.048Z,14.30
2022-09-10T15:58:47.105Z,14.40
2022-09-10T16:00:47.015Z,14.40
2022-09-10T16:02:47.370Z,14.40
2022-09-10T16:04:47.051Z,14.40
2022-09-10T16:06:47.105Z,14.40
2022-09-10T16:08:47.124Z,14.30
2022-09-10T16:10:46.992Z,14.30
2022-09-10T16:12:47.119Z,14.20
2022-09-10T16:14:48.060Z,14.20
2022-09-10T16:16:47.135Z,14.20
2022-09-10T16:18:48.106Z,14.20
2022-09-10T16:20:47.056Z,14.10
2022-09-10T16:22:47.088Z,14.10
2022-09-10T16:24:47.029Z,14.10
2022-09-10T16:26:46.993Z,14.00
2022-09-10T16:28:47.062Z,14.00
2022-09-10T16:30:47.145Z,14.00
2022-09-10T16:32:47.047Z,14.00
2022-09-10T16:34:47.096Z,14.00
2022-09-10T16:36:47.068Z,14.00
2022-09-10T16:38:47.154Z,13.90
2022-09-10T16:40:46.995Z,13.90
2022-09-10T16:42:47.099Z,13.90
2022-09-10T16:44:47.075Z,14.00
2022-09-10T16:46:47.073Z,14.00
2022-09-10T16:48:47.095Z,14.00
2022-09-10T16:50:47.971Z,14.00
2022-09-10T16:52:47.117Z,14.00
2022-09-10T16:54:47.052Z,14.00
2022-09-10T16:56:47.049Z,14.00
2022-09-10T16:58:47.023Z,14.00
2022-09-10T17:00:47.028Z,14.00
2022-09-10T17:02:47.170Z,14.00
2022-09-10T17:04:47.082Z,14.00
2022-09-10T17:06:47.083Z,13.90
2022-09-10T17:08:47.152Z,13.80
2022-09-10T17:10:47.032Z,13.80
2022-09-10T17:12:47.062Z,13.80
2022-09-10T17:14:47.420Z,13.80
2022-09-10T17:16:47.115Z,13.70
2022-09-10T17:18:47.082Z,13.70
2022-09-10T17:20:47.095Z,13.70
2022-09-10T17:22:47.108Z,13.70
2022-09-10T17:24:47.125Z,13.60
2022-09-10T17:26:47.161Z,13.60
2022-09-10T17:28:47.071Z,13.60
2022-09-10T17:31:17.111Z,13.60
2022-09-10T17:33:17.097Z,13.50
2022-09-10T17:35:17.204Z,13.50
2022-09-10T17:37:17.139Z,13.50
2022-09-10T17:39:17.160Z,13.50
2022-09-10T17:41:17.050Z,13.50
2022-09-10T17:43:17.076Z,13.40
2022-09-10T17:45:17.091Z,13.40
2022-09-10T17:47:17.090Z,13.30
2022-09-10T17:49:17.142Z,13.30
2022-09-10T17:51:17.118Z,13.30
2022-09-10T17:53:17.152Z,13.20
2022-09-10T17:55:17.044Z,13.20
2022-09-10T17:57:19.100Z,13.20
2022-09-10T17:59:17.036Z,13.20
2022-09-10T18:01:21.270Z,13.20
2022-09-10T18:03:17.119Z,13.20
2022-09-10T18:05:17.044Z,13.10
2022-09-10T18:07:17.133Z,13.10
2022-09-10T18:09:17.184Z,13.20
2022-09-10T18:11:17.042Z,13.10
2022-09-10T18:13:17.078Z,13.00
2022-09-10T18:15:17.254Z,13.00
2022-09-10T18:17:17.173Z,13.00
2022-09-10T18:19:17.555Z,13.00
2022-09-10T18:21:17.240Z,13.00
2022-09-10T18:23:17.276Z,13.00
2022-09-10T18:25:17.201Z,13.00
2022-09-10T18:27:17.252Z,13.00
2022-09-10T18:29:17.222Z,13.00
2022-09-10T18:31:17.214Z,13.00
2022-09-10T18:33:17.245Z,12.90
2022-09-10T18:35:17.263Z,12.90
2022-09-10T18:37:17.241Z,12.90
2022-09-10T18:39:17.354Z,12.90
2022-09-10T18:41:17.118Z,12.80
2022-09-10T18:43:17.086Z,12.80
2022-09-10T18:45:17.075Z,12.80
2022-09-10T18:47:34.209Z,12.80
2022-09-10T18:49:20.938Z,12.80
2022-09-10T18:51:17.091Z,12.80
2022-09-10T18:53:17.076Z,12.80
2022-09-10T18:55:17.177Z,12.80
2022-09-10T18:57:17.092Z,12.80
2022-09-10T18:59:17.094Z,12.80
2022-09-10T19:01:17.177Z,12.80
2022-09-10T19:03:17.115Z,12.80
2022-09-10T19:05:17.114Z,12.80
2022-09-10T19:07:17.173Z,12.80
2022-09-10T19:09:17.274Z,12.90
2022-09-10T19:11:17.176Z,12.90
2022-09-10T19:13:17.133Z,12.90
2022-09-10T19:15:17.112Z,12.90
2022-09-10T19:17:17.167Z,12.90
2022-09-10T19:19:17.157Z,12.90
2022-09-10T19:21:17.167Z,12.90
2022-09-10T19:23:47.177Z,12.90
2022-09-10T19:25:47.196Z,12.80
2022-09-10T19:27:47.209Z,12.80
2022-09-10T19:29:47.154Z,12.80
2022-09-10T19:31:47.135Z,12.80
2022-09-10T19:33:47.169Z,12.80
2022-09-10T19:35:47.209Z,12.70
2022-09-10T19:37:47.212Z,12.70
2022-09-10T19:39:47.315Z,12.70
2022-09-10T19:41:47.244Z,12.70
2022-09-10T19:43:47.099Z,12.70
2022-09-10T19:45:47.165Z,12.70
2022-09-10T19:47:47.142Z,12.70
2022-09-10T19:49:47.187Z,12.70
2022-09-10T19:51:47.279Z,12.80
2022-09-10T19:53:47.252Z,12.80
2022-09-10T19:55:47.128Z,12.80
2022-09-10T19:57:47.218Z,12.70
2022-09-10T19:59:47.171Z,12.70
2022-09-10T20:01:47.258Z,12.70
2022-09-10T20:03:47.150Z,12.70
2022-09-10T20:05:47.166Z,12.70
2022-09-10T20:07:47.233Z,12.70
2022-09-10T20:09:47.270Z,12.70
2022-09-10T20:11:47.184Z,12.70
2022-09-10T20:13:47.340Z,12.70
2022-09-10T20:15:47.291Z,12.70
2022-09-10T20:17:47.263Z,12.70
2022-09-10T20:19:47.268Z,12.70
2022-09-10T20:21:47.303Z,12.70
2022-09-10T20:23:47.253Z,12.70
2022-09-10T20:25:47.250Z,12.70
2022-09-10T20:27:47.343Z,12.70
2022-09-10T20:29:47.329Z,12.70
2022-09-10T20:31:47.387Z,12.80
2022-09-10T20:33:47.207Z,12.80
2022-09-10T20:35:47.221Z,12.80
2022-09-10T20:37:51.614Z,12.80
2022-09-10T20:39:47.447Z,12.80
2022-09-10T20:41:47.345Z,12.80
2022-09-10T20:43:47.351Z,12.80
2022-09-10T20:45:47.226Z,12.80
2022-09-10T20:47:57.318Z,12.90
2022-09-10T20:49:57.182Z,12.90
2022-09-10T20:51:57.272Z,12.90
2022-09-10T20:53:57.244Z,12.90
2022-09-10T20:55:57.370Z,12.90
2022-09-10T20:57:57.329Z,12.90
2022-09-10T20:59:57.380Z,12.90
2022-09-10T21:01:57.466Z,12.90
2022-09-10T21:03:57.246Z,12.90
2022-09-10T21:05:57.335Z,12.90
2022-09-10T21:07:57.272Z,12.90
2022-09-10T21:09:57.553Z,12.90
2022-09-10T21:11:57.318Z,12.90
2022-09-10T21:13:57.310Z,12.90
2022-09-10T21:15:57.274Z,12.90
2022-09-10T21:17:57.217Z,12.90
2022-09-10T21:19:57.217Z,12.90
2022-09-10T21:21:57.273Z,13.00
2022-09-10T21:23:57.305Z,13.00
2022-09-10T21:25:57.291Z,13.00
2022-09-10T21:27:57.223Z,13.00
2022-09-10T21:29:57.248Z,13.00
2022-09-10T21:31:57.337Z,13.00
2022-09-10T21:34:01.957Z,13.00
2022-09-10T21:35:57.300Z,12.90
2022-09-10T21:37:57.786Z,13.00
2022-09-10T21:39:57.325Z,13.00
2022-09-10T21:41:57.221Z,13.00
2022-09-10T21:43:57.229Z,13.00
2022-09-10T21:45:57.253Z,13.10
2022-09-10T21:47:57.230Z,13.10
2022-09-10T21:52:27.256Z,13.10
2022-09-10T21:54:27.253Z,13.20
2022-09-10T21:56:27.348Z,13.20
2022-09-10T21:58:27.266Z,13.20
2022-09-10T22:00:27.229Z,13.20
2022-09-10T22:02:27.411Z,13.20
2022-09-10T22:04:27.288Z,13.20
2022-09-10T22:06:27.267Z,13.20
2022-09-10T22:08:27.295Z,13.20
2022-09-10T22:10:27.305Z,13.30
2022-09-10T22:12:27.309Z,13.30
2022-09-10T22:14:27.395Z,13.30
2022-09-10T22:16:27.277Z,13.30
2022-09-10T22:18:27.395Z,13.40
2022-09-10T22:20:27.302Z,13.40
2022-09-10T22:22:27.236Z,13.40
2022-09-10T22:24:27.246Z,13.40
2022-09-10T22:26:27.254Z,13.40
2022-09-10T22:28:27.263Z,13.30
2022-09-10T22:30:27.347Z,13.20
2022-09-10T22:32:27.296Z,13.10
2022-09-10T22:34:27.418Z,13.10
2022-09-10T22:36:27.271Z,13.10
2022-09-10T22:38:27.348Z,13.00
2022-09-10T22:40:27.244Z,13.00
2022-09-10T22:42:27.253Z,13.00
2022-09-10T22:44:27.267Z,13.00
2022-09-10T22:46:27.298Z,13.00
2022-09-10T22:48:27.307Z,13.00
2022-09-10T22:50:27.313Z,12.90
2022-09-10T22:52:27.248Z,12.90
2022-09-10T22:54:27.333Z,12.90
2022-09-10T22:56:27.305Z,12.90
2022-09-10T22:58:27.287Z,12.80
2022-09-10T23:00:27.265Z,12.80
2022-09-10T23:02:27.369Z,12.80
2022-09-10T23:04:27.301Z,12.80
2022-09-10T23:06:27.304Z,12.80
2022-09-10T23:08:27.327Z,12.80
2022-09-10T23:10:27.291Z,12.70
2022-09-10T23:12:27.389Z,12.70
2022-09-10T23:14:27.304Z,12.70
2022-09-10T23:16:27.284Z,12.70
2022-09-10T23:18:27.282Z,12.70
2022-09-10T23:20:27.350Z,12.70
2022-09-10T23:22:27.327Z,12.70
2022-09-10T23:24:27.323Z,12.70
2022-09-10T23:26:27.316Z,12.70
2022-09-10T23:28:27.317Z,12.70
2022-09-10T23:30:27.340Z,12.70
2022-09-10T23:32:27.405Z,12.70
2022-09-10T23:34:27.515Z,12.70
2022-09-10T23:36:27.321Z,12.80
2022-09-10T23:38:27.332Z,12.80
2022-09-10T23:40:31.070Z,12.80
2022-09-10T23:42:27.350Z,12.80
2022-09-10T23:44:57.486Z,12.80
2022-09-10T23:46:57.286Z,12.80
2022-09-10T23:48:57.289Z,12.80
2022-09-10T23:50:57.315Z,12.80
2022-09-10T23:52:57.372Z,12.80
2022-09-10T23:54:57.340Z,12.80
2022-09-10T23:56:57.304Z,12.80
2022-09-10T23:58:57.287Z,12.80
